Time;durP1;ratioP1;P1;durP2;ratioP2;P2;SDS_P1;SDS_P2;PMS_P1;PMS_P2;Temp;Humidity;BMP_temperature;BMP_pressure;BME280_temperature;BME280_humidity;BME280_pressure;Samples;Min_cycle;Max_cycle;Signal;HPM_P1;HPM_P2
2023/04/29 00:00:41;;;;;;;3.97;3.67;;;13.10;99.90;;;;;;4883911;29;20862;-59
2023/04/29 00:03:07;;;;;;;3.90;3.60;;;13.00;99.90;;;;;;4892237;29;20195;-59
2023/04/29 00:05:32;;;;;;;3.80;3.50;;;12.90;99.90;;;;;;4890909;29;20193;-60
2023/04/29 00:07:58;;;;;;;4.40;4.00;;;12.90;99.90;;;;;;4890304;29;20572;-59
2023/04/29 00:10:23;;;;;;;4.27;3.80;;;13.10;99.90;;;;;;4888909;29;20215;-59
2023/04/29 00:12:50;;;;;;;7.43;3.83;;;12.90;99.90;;;;;;4890804;29;20923;-60
2023/04/29 00:15:16;;;;;;;4.65;4.25;;;13.10;99.90;;;;;;4890758;29;20193;-60
2023/04/29 00:17:42;;;;;;;4.32;4.03;;;12.90;99.90;;;;;;4888083;29;20256;-60
2023/04/29 00:20:09;;;;;;;4.77;4.37;;;13.00;99.90;;;;;;4890670;29;20296;-60
2023/04/29 00:22:34;;;;;;;4.38;4.00;;;13.40;99.90;;;;;;4891783;29;20193;-61
2023/04/29 00:25:00;;;;;;;4.47;4.00;;;13.10;99.90;;;;;;4891468;29;20195;-60
2023/04/29 00:27:26;;;;;;;4.70;3.70;;;13.20;99.90;;;;;;4890451;29;20195;-60
2023/04/29 00:29:52;;;;;;;3.93;3.50;;;13.00;99.90;;;;;;4889746;29;20207;-59
2023/04/29 00:32:17;;;;;;;4.20;3.80;;;13.10;99.90;;;;;;4890297;29;20239;-60
2023/04/29 00:34:43;;;;;;;4.50;4.07;;;12.80;99.90;;;;;;4886591;29;20728;-59
2023/04/29 00:37:08;;;;;;;4.40;4.00;;;12.90;99.90;;;;;;4885986;29;20210;-60
2023/04/29 00:39:34;;;;;;;4.03;3.73;;;12.90;99.90;;;;;;4890326;29;20218;-60
2023/04/29 00:41:59;;;;;;;5.70;4.70;;;13.00;99.90;;;;;;4888369;29;20187;-60
2023/04/29 00:44:25;;;;;;;4.00;3.70;;;12.90;99.90;;;;;;4885705;29;20186;-60
2023/04/29 00:46:51;;;;;;;4.73;4.33;;;12.90;99.90;;;;;;4889838;29;20432;-59
2023/04/29 00:49:16;;;;;;;5.60;4.00;;;12.90;99.90;;;;;;4897543;29;20222;-60
2023/04/29 00:51:43;;;;;;;4.63;4.00;;;12.60;99.90;;;;;;4893600;29;20239;-59
2023/04/29 00:54:10;;;;;;;4.32;3.85;;;12.90;99.90;;;;;;4896727;29;20179;-60
2023/04/29 00:56:39;;;;;;;3.97;3.67;;;12.80;99.90;;;;;;4889902;29;20218;-59
2023/04/29 00:59:08;;;;;;;4.07;3.78;;;12.70;99.90;;;;;;4894212;29;20208;-60
2023/04/29 01:01:34;;;;;;;3.78;3.45;;;12.90;99.90;;;;;;4894393;29;20193;-59
2023/04/29 01:04:00;;;;;;;4.10;3.80;;;12.40;99.90;;;;;;4893130;29;20191;-59
2023/04/29 01:06:42;;;;;;;6.10;4.28;;;12.80;99.90;;;;;;4890482;29;20239;-59
2023/04/29 01:09:26;;;;;;;3.85;3.47;;;12.70;99.90;;;;;;4896854;29;20274;-60
2023/04/29 01:12:05;;;;;;;3.80;3.50;;;12.60;99.90;;;;;;4888752;29;20191;-59
2023/04/29 01:14:33;;;;;;;3.83;3.33;;;12.90;99.90;;;;;;4891603;29;20247;-59
2023/04/29 01:17:04;;;;;;;4.03;3.63;;;12.70;99.90;;;;;;4891269;29;20211;-60
2023/04/29 01:19:47;;;;;;;3.20;3.00;;;12.70;99.90;;;;;;4889266;29;20297;-61
2023/04/29 01:22:17;;;;;;;3.92;3.50;;;12.50;99.90;;;;;;4891969;29;20218;-59
2023/04/29 01:24:43;;;;;;;3.60;3.30;;;12.60;99.90;;;;;;4892475;29;20281;-60
2023/04/29 01:27:53;;;;;;;3.77;3.47;;;12.60;99.90;;;;;;4891594;29;20273;-60
2023/04/29 01:30:30;;;;;;;3.70;3.40;;;12.60;99.90;;;;;;4883013;29;20214;-59
2023/04/29 01:32:59;;;;;;;3.65;3.35;;;12.80;99.90;;;;;;4888626;29;20187;-60
2023/04/29 01:35:33;;;;;;;3.42;3.13;;;12.50;99.90;;;;;;4894406;29;20885;-59
2023/04/29 01:38:22;;;;;;;3.13;2.83;;;12.50;99.90;;;;;;4893962;29;20206;-60
2023/04/29 01:41:13;;;;;;;3.53;3.22;;;12.40;99.90;;;;;;4893575;29;20179;-59
2023/04/29 01:43:39;;;;;;;3.83;3.45;;;12.50;99.90;;;;;;4892522;29;20234;-60
2023/04/29 01:46:08;;;;;;;3.90;3.60;;;12.60;99.90;;;;;;4892562;29;20779;-60
2023/04/29 01:48:36;;;;;;;4.00;3.60;;;12.60;99.90;;;;;;4892156;29;20235;-62
2023/04/29 01:51:01;;;;;;;4.15;3.30;;;12.60;99.90;;;;;;4893215;29;20286;-61
2023/04/29 01:53:27;;;;;;;3.37;3.13;;;12.60;99.90;;;;;;4891272;29;20758;-61
2023/04/29 01:55:52;;;;;;;3.87;3.40;;;12.50;99.90;;;;;;4892183;29;20199;-61
2023/04/29 01:58:18;;;;;;;3.60;3.30;;;12.40;99.90;;;;;;4892900;29;20613;-60
2023/04/29 02:00:44;;;;;;;4.97;3.90;;;12.50;99.90;;;;;;4890612;29;20217;-61
2023/04/29 02:03:09;;;;;;;3.40;3.20;;;12.40;99.90;;;;;;4893207;29;20205;-60
2023/04/29 02:05:35;;;;;;;3.70;3.40;;;12.30;99.90;;;;;;4893310;29;20660;-61
2023/04/29 02:08:01;;;;;;;4.03;3.73;;;12.30;99.90;;;;;;4891594;29;20198;-61
2023/04/29 02:10:27;;;;;;;3.10;2.90;;;12.30;99.90;;;;;;4890709;29;20221;-61
2023/04/29 02:12:53;;;;;;;3.80;3.50;;;12.60;99.90;;;;;;4890306;29;20454;-61
2023/04/29 02:15:19;;;;;;;4.60;3.47;;;12.40;99.90;;;;;;4887181;29;20397;-61
2023/04/29 02:17:45;;;;;;;4.03;3.63;;;12.20;99.90;;;;;;4890530;29;20207;-61
2023/04/29 02:20:11;;;;;;;3.85;3.05;;;12.30;99.90;;;;;;4899694;29;20306;-60
2023/04/29 02:22:38;;;;;;;3.53;3.22;;;12.20;99.90;;;;;;4890183;29;20679;-61
2023/04/29 02:25:03;;;;;;;3.30;3.10;;;12.30;99.90;;;;;;4889068;29;20200;-61
2023/04/29 02:27:29;;;;;;;4.50;4.17;;;12.40;99.90;;;;;;4893511;29;20202;-61
2023/04/29 02:29:55;;;;;;;4.27;3.37;;;12.30;99.90;;;;;;4894700;29;20562;-61
2023/04/29 02:32:20;;;;;;;3.50;3.30;;;12.20;99.90;;;;;;4891772;29;20630;-61
2023/04/29 02:34:46;;;;;;;3.63;3.33;;;12.40;99.90;;;;;;4886584;29;20190;-61
2023/04/29 02:37:11;;;;;;;3.93;3.57;;;12.00;99.90;;;;;;4892949;29;20707;-61
2023/04/29 02:39:37;;;;;;;3.07;2.87;;;12.20;99.90;;;;;;4889205;29;20634;-61
2023/04/29 02:42:03;;;;;;;3.77;3.47;;;12.10;99.90;;;;;;4889227;29;20198;-61
2023/04/29 02:44:30;;;;;;;3.60;3.30;;;12.20;99.90;;;;;;4889717;29;20270;-61
2023/04/29 02:46:56;;;;;;;4.65;3.90;;;12.20;99.90;;;;;;4887586;29;20193;-61
2023/04/29 02:49:22;;;;;;;3.97;3.65;;;12.10;99.90;;;;;;4887173;29;20222;-60
2023/04/29 02:51:48;;;;;;;3.60;3.30;;;12.00;99.90;;;;;;4887824;29;20253;-61
2023/04/29 02:54:15;;;;;;;4.38;4.07;;;12.10;99.90;;;;;;4893729;29;20286;-61
2023/04/29 02:56:41;;;;;;;4.32;3.92;;;12.00;99.90;;;;;;4889979;29;20222;-60
2023/04/29 02:59:07;;;;;;;4.32;3.90;;;12.00;99.90;;;;;;4892067;29;20203;-60
2023/04/29 03:01:32;;;;;;;4.00;3.70;;;12.00;99.90;;;;;;4884636;29;20187;-61
2023/04/29 03:03:58;;;;;;;4.10;3.70;;;12.10;99.90;;;;;;4890696;29;20213;-61
2023/04/29 03:06:24;;;;;;;3.60;3.40;;;12.00;99.90;;;;;;4890601;29;20271;-61
2023/04/29 03:08:51;;;;;;;5.30;3.75;;;12.00;99.90;;;;;;4895764;29;20251;-61
2023/04/29 03:11:17;;;;;;;5.15;4.00;;;11.90;99.90;;;;;;4890557;29;20199;-60
2023/04/29 03:13:42;;;;;;;4.00;3.70;;;12.00;99.90;;;;;;4894697;29;20199;-61
2023/04/29 03:16:08;;;;;;;4.00;3.70;;;11.80;99.90;;;;;;4890610;29;20211;-60
2023/04/29 03:18:34;;;;;;;4.20;3.80;;;12.00;99.90;;;;;;4893700;29;20549;-61
2023/04/29 03:20:59;;;;;;;4.37;3.97;;;11.90;99.90;;;;;;4889784;29;20926;-61
2023/04/29 03:23:25;;;;;;;4.27;3.90;;;11.90;99.90;;;;;;4889464;29;20194;-61
2023/04/29 03:25:51;;;;;;;6.63;4.07;;;11.90;99.90;;;;;;4891848;29;20291;-61
2023/04/29 03:28:17;;;;;;;4.35;4.07;;;11.90;99.90;;;;;;4888197;29;20972;-61
2023/04/29 03:30:43;;;;;;;3.55;3.22;;;11.60;99.90;;;;;;4883899;29;20210;-61
2023/04/29 03:33:09;;;;;;;3.60;3.30;;;11.70;99.90;;;;;;4886462;29;20229;-59
2023/04/29 03:35:34;;;;;;;4.77;3.80;;;11.80;99.90;;;;;;4887143;29;20262;-60
2023/04/29 03:38:00;;;;;;;4.17;3.87;;;11.70;99.90;;;;;;4888586;29;20588;-59
2023/04/29 03:40:25;;;;;;;4.10;3.70;;;11.80;99.90;;;;;;4887245;29;20207;-60
2023/04/29 03:42:51;;;;;;;4.13;3.73;;;11.80;99.90;;;;;;4885641;29;20219;-59
2023/04/29 03:45:17;;;;;;;8.73;4.20;;;11.60;99.90;;;;;;4888572;29;20619;-60
2023/04/29 03:47:42;;;;;;;5.03;4.07;;;11.80;99.90;;;;;;4888126;29;20672;-60
2023/04/29 03:50:08;;;;;;;3.90;3.60;;;11.80;99.90;;;;;;4884731;29;20207;-59
2023/04/29 03:52:36;;;;;;;4.80;3.37;;;11.70;99.90;;;;;;4888944;29;20206;-60
2023/04/29 03:55:02;;;;;;;5.20;3.97;;;11.90;99.90;;;;;;4888795;29;20449;-60
2023/04/29 03:57:28;;;;;;;4.20;3.90;;;11.60;99.90;;;;;;4887879;29;20228;-60
2023/04/29 03:59:54;;;;;;;4.70;4.30;;;11.40;99.90;;;;;;4884799;29;20881;-60
2023/04/29 04:02:20;;;;;;;4.03;3.73;;;11.60;99.90;;;;;;4888294;29;20258;-60
2023/04/29 04:04:45;;;;;;;5.37;4.87;;;11.40;99.90;;;;;;4890722;29;20443;-60
2023/04/29 04:07:11;;;;;;;6.10;3.90;;;11.30;99.90;;;;;;4886181;29;20526;-60
2023/04/29 04:09:37;;;;;;;4.40;4.10;;;11.80;99.90;;;;;;4890602;29;20214;-60
2023/04/29 04:12:03;;;;;;;4.35;3.95;;;11.30;99.90;;;;;;4887653;29;20188;-60
2023/04/29 04:14:29;;;;;;;4.37;4.07;;;11.30;99.90;;;;;;4886960;29;20245;-60
2023/04/29 04:16:54;;;;;;;4.50;3.87;;;11.10;99.90;;;;;;4885372;29;20475;-60
2023/04/29 04:19:20;;;;;;;4.70;4.23;;;11.20;99.90;;;;;;4888625;29;20217;-60
2023/04/29 04:21:46;;;;;;;4.33;4.00;;;11.10;99.90;;;;;;4891230;29;20181;-60
2023/04/29 04:24:11;;;;;;;3.90;3.50;;;11.10;99.90;;;;;;4886572;29;20194;-60
2023/04/29 04:26:37;;;;;;;5.63;4.83;;;11.00;99.90;;;;;;4885980;29;20202;-60
2023/04/29 04:29:02;;;;;;;4.13;3.83;;;11.00;99.90;;;;;;4888129;29;20218;-60
2023/04/29 04:31:28;;;;;;;8.20;4.77;;;11.10;99.90;;;;;;4884923;29;20243;-60
2023/04/29 04:33:55;;;;;;;4.80;4.40;;;11.00;99.90;;;;;;4890206;29;20559;-60
2023/04/29 04:36:21;;;;;;;4.20;3.80;;;10.80;99.90;;;;;;4884712;29;20490;-60
2023/04/29 04:38:46;;;;;;;4.93;4.50;;;11.20;99.90;;;;;;4890328;29;20214;-60
2023/04/29 04:41:12;;;;;;;4.73;4.33;;;10.90;99.90;;;;;;4885858;29;20200;-60
2023/04/29 04:43:39;;;;;;;5.20;4.80;;;11.00;99.90;;;;;;4886174;29;20544;-60
2023/04/29 04:46:13;;;;;;;5.28;4.78;;;11.10;99.90;;;;;;4887181;29;20190;-60
2023/04/29 04:48:38;;;;;;;5.03;4.57;;;11.00;99.90;;;;;;4887774;29;20197;-60
2023/04/29 04:51:11;;;;;;;5.10;4.60;;;10.90;99.90;;;;;;4891640;29;20212;-60
2023/04/29 04:53:38;;;;;;;5.75;5.10;;;10.70;99.90;;;;;;4884722;29;20200;-60
2023/04/29 04:56:04;;;;;;;5.00;4.60;;;10.90;99.90;;;;;;4887743;29;20197;-59
2023/04/29 04:58:31;;;;;;;4.90;4.40;;;11.10;99.90;;;;;;4887517;29;20656;-60
2023/04/29 05:00:56;;;;;;;5.57;5.07;;;11.00;99.90;;;;;;4883828;29;20672;-60
2023/04/29 05:03:22;;;;;;;5.30;4.80;;;11.10;99.90;;;;;;4886862;29;20190;-60
2023/04/29 05:05:55;;;;;;;4.53;4.13;;;10.90;99.90;;;;;;4887708;29;20760;-60
2023/04/29 05:08:21;;;;;;;4.97;4.47;;;12.40;99.90;;;;;;4883908;29;20239;-58
2023/04/29 05:10:47;;;;;;;5.47;4.77;;;11.10;99.90;;;;;;4888503;29;20249;-58
2023/04/29 05:13:12;;;;;;;5.57;4.97;;;11.10;99.90;;;;;;4887580;29;20196;-59
2023/04/29 05:15:38;;;;;;;5.23;4.83;;;11.20;99.90;;;;;;4887842;29;20222;-58
2023/04/29 05:18:04;;;;;;;5.50;5.10;;;11.20;99.90;;;;;;4890377;29;20311;-58
2023/04/29 05:20:29;;;;;;;5.40;4.90;;;11.50;99.90;;;;;;4889159;29;20213;-58
2023/04/29 05:22:55;;;;;;;4.70;4.40;;;11.50;99.90;;;;;;4884539;29;20193;-59
2023/04/29 05:25:21;;;;;;;4.90;4.50;;;11.80;99.90;;;;;;4891839;29;20267;-58
2023/04/29 05:27:46;;;;;;;5.33;4.83;;;12.00;99.90;;;;;;4883687;29;20195;-58
2023/04/29 05:30:12;;;;;;;4.90;4.60;;;12.00;99.90;;;;;;4887170;29;20726;-58
2023/04/29 05:32:37;;;;;;;4.70;4.30;;;12.00;99.90;;;;;;4886681;29;20614;-59
2023/04/29 05:35:03;;;;;;;4.37;3.97;;;12.10;99.90;;;;;;4886288;29;20219;-58
2023/04/29 05:37:30;;;;;;;3.43;3.23;;;12.60;99.90;;;;;;4887180;29;20219;-58
2023/04/29 05:39:56;;;;;;;5.57;3.92;;;12.60;99.90;;;;;;4886450;29;20463;-59
2023/04/29 05:42:23;;;;;;;5.22;4.72;;;12.70;99.90;;;;;;4887580;29;20187;-59
2023/04/29 05:44:49;;;;;;;5.68;4.93;;;13.20;99.90;;;;;;4893014;29;20835;-59
2023/04/29 05:47:14;;;;;;;4.57;4.18;;;13.40;99.90;;;;;;4888927;29;20197;-58
2023/04/29 05:49:40;;;;;;;4.70;4.40;;;13.80;99.90;;;;;;4891430;29;20219;-59
2023/04/29 05:52:06;;;;;;;4.70;4.20;;;14.00;99.90;;;;;;4889661;29;20337;-60
2023/04/29 05:54:32;;;;;;;4.70;4.27;;;13.90;99.90;;;;;;4891583;29;20274;-59
2023/04/29 05:57:01;;;;;;;4.90;4.50;;;14.30;99.90;;;;;;4888960;29;20215;-59
2023/04/29 05:59:30;;;;;;;6.00;4.93;;;14.10;99.90;;;;;;4892745;29;20628;-59
2023/04/29 06:01:59;;;;;;;8.35;4.60;;;14.30;99.90;;;;;;4892010;29;20190;-59
2023/04/29 06:04:25;;;;;;;5.90;5.40;;;14.60;99.90;;;;;;4889583;29;20187;-58
2023/04/29 06:06:52;;;;;;;5.20;4.80;;;15.10;99.90;;;;;;4892058;29;20217;-58
2023/04/29 06:09:19;;;;;;;5.50;5.00;;;15.20;99.90;;;;;;4891573;29;20266;-59
2023/04/29 06:11:47;;;;;;;6.07;5.28;;;15.30;99.90;;;;;;4892215;29;20928;-58
2023/04/29 06:14:13;;;;;;;4.22;3.92;;;15.60;99.90;;;;;;4890882;29;20209;-58
2023/04/29 06:16:39;;;;;;;5.50;4.67;;;15.50;99.90;;;;;;4893109;29;20211;-58
2023/04/29 06:19:05;;;;;;;5.53;5.03;;;15.50;99.90;;;;;;4888063;29;20211;-58
2023/04/29 06:21:31;;;;;;;4.90;4.50;;;15.50;99.90;;;;;;4892444;29;20447;-58
2023/04/29 06:23:57;;;;;;;5.57;5.20;;;15.10;99.90;;;;;;4887939;29;20518;-58
2023/04/29 06:26:23;;;;;;;5.28;4.45;;;15.40;99.90;;;;;;4889243;29;20418;-60
2023/04/29 06:28:48;;;;;;;4.88;4.18;;;15.40;99.90;;;;;;4890888;29;20767;-58
2023/04/29 06:31:14;;;;;;;5.03;4.60;;;15.10;99.90;;;;;;4886652;29;20254;-58
2023/04/29 06:33:40;;;;;;;4.50;4.20;;;15.30;99.90;;;;;;4887736;29;20203;-59
2023/04/29 06:36:06;;;;;;;4.85;4.55;;;15.50;99.90;;;;;;4890978;29;20286;-60
2023/04/29 06:38:32;;;;;;;4.30;4.00;;;15.20;99.90;;;;;;4888818;29;20282;-59
2023/04/29 06:40:59;;;;;;;4.70;4.30;;;15.50;99.90;;;;;;4887775;29;20179;-59
2023/04/29 06:43:26;;;;;;;6.95;4.85;;;15.30;99.90;;;;;;4889765;29;20195;-59
2023/04/29 06:45:51;;;;;;;5.15;4.85;;;16.00;99.90;;;;;;4891195;29;20728;-61
2023/04/29 06:48:17;;;;;;;4.90;4.40;;;15.60;99.90;;;;;;4890455;29;20195;-60
2023/04/29 06:50:54;;;;;;;4.70;4.40;;;15.60;99.90;;;;;;4888775;29;20223;-60
2023/04/29 06:53:20;;;;;;;4.80;4.05;;;16.00;99.90;;;;;;4890476;29;20521;-59
2023/04/29 06:55:46;;;;;;;5.35;4.88;;;15.80;99.90;;;;;;4888541;29;20206;-60
2023/04/29 06:58:16;;;;;;;4.80;4.40;;;16.10;99.90;;;;;;4889711;29;20218;-60
2023/04/29 07:00:47;;;;;;;4.93;4.55;;;16.40;99.90;;;;;;4889846;29;20463;-60
2023/04/29 07:03:12;;;;;;;5.35;4.85;;;16.20;99.90;;;;;;4888795;29;20187;-60
2023/04/29 07:05:40;;;;;;;4.37;4.10;;;15.80;99.90;;;;;;4889257;29;20199;-60
2023/04/29 07:08:06;;;;;;;4.30;3.97;;;15.90;99.90;;;;;;4888022;29;20215;-60
2023/04/29 07:10:32;;;;;;;3.72;3.42;;;16.00;99.90;;;;;;4883927;29;20624;-60
2023/04/29 07:12:59;;;;;;;4.23;3.83;;;16.00;99.90;;;;;;4888868;29;20254;-60
2023/04/29 07:15:25;;;;;;;4.72;4.40;;;16.00;99.90;;;;;;4886436;29;20187;-60
2023/04/29 07:17:51;;;;;;;4.32;3.95;;;16.30;99.90;;;;;;4888494;29;20203;-60
2023/04/29 07:20:17;;;;;;;2.90;2.70;;;16.60;99.90;;;;;;4887342;29;20214;-60
2023/04/29 07:22:42;;;;;;;3.93;3.63;;;16.00;99.90;;;;;;4886216;29;20684;-60
2023/04/29 07:25:09;;;;;;;2.83;2.63;;;16.60;99.90;;;;;;4888061;29;20483;-60
2023/04/29 07:27:35;;;;;;;4.05;3.70;;;16.50;99.90;;;;;;4888309;29;20188;-60
2023/04/29 07:30:02;;;;;;;4.00;3.60;;;16.60;99.90;;;;;;4887616;29;20211;-60
2023/04/29 07:32:27;;;;;;;2.90;2.65;;;16.60;99.90;;;;;;4888562;29;20462;-60
2023/04/29 07:34:53;;;;;;;3.00;2.77;;;16.80;99.90;;;;;;4888476;29;20545;-60
2023/04/29 07:37:19;;;;;;;3.57;3.07;;;18.20;99.90;;;;;;4889105;29;20211;-60
2023/04/29 07:39:44;;;;;;;4.50;3.93;;;18.60;99.90;;;;;;4886658;29;20646;-60
2023/04/29 07:42:10;;;;;;;4.00;3.70;;;19.30;99.90;;;;;;4887851;29;20194;-60
2023/04/29 07:44:36;;;;;;;2.90;2.70;;;19.10;99.90;;;;;;4889928;29;20476;-61
2023/04/29 07:47:02;;;;;;;2.70;2.30;;;19.60;99.80;;;;;;4886256;29;20199;-60
2023/04/29 07:49:27;;;;;;;3.77;2.87;;;19.60;99.10;;;;;;4888316;29;20207;-60
2023/04/29 07:51:53;;;;;;;2.60;2.40;;;19.60;99.50;;;;;;4890768;29;20190;-60
2023/04/29 07:54:18;;;;;;;2.70;2.50;;;18.80;99.50;;;;;;4886201;29;20221;-60
2023/04/29 07:56:45;;;;;;;2.93;2.73;;;18.40;99.90;;;;;;4889324;29;20693;-60
2023/04/29 07:59:10;;;;;;;2.70;2.50;;;18.30;99.90;;;;;;4885877;29;20681;-60
2023/04/29 08:01:36;;;;;;;3.50;3.20;;;18.30;99.90;;;;;;4881421;29;20258;-60
2023/04/29 08:04:02;;;;;;;2.90;2.70;;;18.20;99.90;;;;;;4886984;29;20187;-60
2023/04/29 08:06:27;;;;;;;2.87;2.67;;;18.00;99.90;;;;;;4884549;29;20851;-61
2023/04/29 08:08:55;;;;;;;2.77;2.57;;;17.80;99.90;;;;;;4885397;29;20249;-60
2023/04/29 08:11:21;;;;;;;3.80;2.67;;;17.90;99.90;;;;;;4882843;29;20191;-61
2023/04/29 08:13:47;;;;;;;3.80;3.50;;;17.90;99.90;;;;;;4886846;29;20327;-61
2023/04/29 08:16:13;;;;;;;3.00;2.80;;;17.70;99.90;;;;;;4881451;29;20293;-60
2023/04/29 08:18:39;;;;;;;3.10;2.90;;;17.40;99.90;;;;;;4889070;29;20439;-60
2023/04/29 08:21:05;;;;;;;3.30;3.00;;;17.20;99.90;;;;;;4888144;29;20439;-59
2023/04/29 08:23:31;;;;;;;4.13;3.67;;;17.20;99.90;;;;;;4883860;29;20183;-59
2023/04/29 08:25:57;;;;;;;5.88;3.10;;;17.20;99.90;;;;;;4888935;29;20193;-59
2023/04/29 08:28:23;;;;;;;3.40;2.80;;;17.40;99.90;;;;;;4883926;29;20789;-60
2023/04/29 08:30:49;;;;;;;2.93;2.73;;;17.40;99.90;;;;;;4886074;29;20443;-60
2023/04/29 08:33:15;;;;;;;2.83;2.65;;;17.30;99.90;;;;;;4888080;29;20976;-60
2023/04/29 08:35:41;;;;;;;3.50;2.83;;;17.50;99.90;;;;;;4885233;29;20199;-62
2023/04/29 08:38:09;;;;;;;3.97;2.67;;;17.40;99.90;;;;;;4888436;29;20475;-59
2023/04/29 08:40:45;;;;;;;3.42;3.13;;;17.50;99.90;;;;;;4882781;29;20543;-59
2023/04/29 08:43:14;;;;;;;3.03;2.83;;;17.30;99.90;;;;;;4888874;29;20179;-59
2023/04/29 08:45:41;;;;;;;4.57;4.18;;;17.20;99.90;;;;;;4885688;29;20183;-59
2023/04/29 08:48:07;;;;;;;3.55;3.28;;;17.20;99.90;;;;;;4886978;29;20688;-59
2023/04/29 08:50:40;;;;;;;3.00;2.67;;;17.10;99.90;;;;;;4889330;29;20222;-59
2023/04/29 08:53:09;;;;;;;2.88;2.67;;;16.70;99.90;;;;;;4884102;29;20198;-59
2023/04/29 08:55:40;;;;;;;4.97;4.28;;;16.80;99.90;;;;;;4889182;29;20191;-59
2023/04/29 08:58:06;;;;;;;3.80;3.50;;;16.60;99.90;;;;;;4886966;29;20207;-59
2023/04/29 09:00:33;;;;;;;3.38;3.08;;;16.60;99.90;;;;;;4880157;29;20204;-59
2023/04/29 09:03:04;;;;;;;3.15;2.95;;;16.40;99.90;;;;;;4889535;29;20223;-59
2023/04/29 09:05:32;;;;;;;5.30;3.45;;;16.60;99.90;;;;;;4886480;29;20270;-59
2023/04/29 09:07:58;;;;;;;3.63;3.33;;;16.40;99.90;;;;;;4887475;29;20226;-59
2023/04/29 09:10:25;;;;;;;4.05;3.75;;;16.20;99.90;;;;;;4885753;29;20752;-59
2023/04/29 09:12:50;;;;;;;3.70;3.40;;;16.10;99.90;;;;;;4887393;29;20271;-59
2023/04/29 09:15:16;;;;;;;5.17;4.77;;;16.00;99.90;;;;;;4888045;29;20665;-58
2023/04/29 09:17:47;;;;;;;3.57;3.37;;;16.30;99.90;;;;;;4886999;29;20278;-59
2023/04/29 09:20:21;;;;;;;4.22;3.85;;;16.10;99.90;;;;;;4890618;29;20220;-59
2023/04/29 09:22:49;;;;;;;5.65;4.00;;;16.10;99.90;;;;;;4887980;29;20190;-59
2023/04/29 09:25:15;;;;;;;4.25;3.55;;;16.00;99.90;;;;;;4889522;29;20205;-59
2023/04/29 09:27:41;;;;;;;3.77;3.57;;;16.30;99.90;;;;;;4889896;29;20201;-59
2023/04/29 09:30:08;;;;;;;4.80;4.40;;;15.70;99.90;;;;;;4885310;29;20211;-59
2023/04/29 09:32:33;;;;;;;5.30;4.93;;;16.00;99.90;;;;;;4888830;29;20711;-59
2023/04/29 09:35:26;;;;;;;4.47;4.17;;;16.30;99.90;;;;;;4888980;29;20191;-59
2023/04/29 09:37:55;;;;;;;4.60;4.20;;;16.70;99.90;;;;;;4889627;29;20258;-59
2023/04/29 09:40:32;;;;;;;8.93;7.80;;;17.10;99.90;;;;;;4891758;29;20210;-60
2023/04/29 09:42:58;;;;;;;4.00;3.70;;;17.80;99.90;;;;;;4892480;29;20189;-59
2023/04/29 09:45:46;;;;;;;3.88;3.58;;;18.00;99.90;;;;;;4890612;29;20218;-59
2023/04/29 09:48:12;;;;;;;3.38;3.17;;;18.40;99.90;;;;;;4888566;29;20192;-59
2023/04/29 09:50:39;;;;;;;3.47;3.28;;;18.30;99.90;;;;;;4893122;29;20343;-59
2023/04/29 09:53:07;;;;;;;2.80;2.60;;;18.70;99.90;;;;;;4886602;29;20195;-59
2023/04/29 09:55:35;;;;;;;3.47;2.92;;;18.80;99.40;;;;;;4890371;29;20356;-59
2023/04/29 09:58:01;;;;;;;2.85;2.65;;;18.80;98.50;;;;;;4893063;29;20219;-59
2023/04/29 10:00:31;;;;;;;3.22;3.00;;;18.70;98.20;;;;;;4886136;29;20344;-59
2023/04/29 10:02:59;;;;;;;3.15;2.95;;;18.40;98.90;;;;;;4890588;29;20230;-59
2023/04/29 10:05:27;;;;;;;3.00;2.70;;;19.50;98.50;;;;;;4888874;29;20207;-59
2023/04/29 10:07:54;;;;;;;2.75;2.55;;;19.70;97.40;;;;;;4887516;29;20235;-59
2023/04/29 10:10:21;;;;;;;3.93;3.63;;;20.40;95.90;;;;;;4886095;29;20216;-59
2023/04/29 10:12:47;;;;;;;3.93;2.60;;;21.40;93.90;;;;;;4888841;29;20982;-59
2023/04/29 10:15:27;;;;;;;2.93;2.73;;;21.80;92.40;;;;;;4888002;29;20510;-59
2023/04/29 10:18:19;;;;;;;2.83;2.63;;;21.40;91.40;;;;;;4889093;29;20474;-59
2023/04/29 10:20:46;;;;;;;5.10;3.17;;;21.10;92.00;;;;;;4888249;29;20471;-59
2023/04/29 10:23:16;;;;;;;2.60;2.40;;;21.60;90.80;;;;;;4886371;29;20968;-59
2023/04/29 10:25:45;;;;;;;3.40;2.47;;;21.40;91.10;;;;;;4890010;29;20475;-59
2023/04/29 10:28:15;;;;;;;2.67;2.47;;;21.50;91.00;;;;;;4889493;29;20459;-59
2023/04/29 10:30:49;;;;;;;2.35;2.13;;;21.20;90.20;;;;;;4883746;29;20478;-59
2023/04/29 10:33:16;;;;;;;2.90;2.70;;;21.00;90.80;;;;;;4889515;29;20203;-61
2023/04/29 10:35:43;;;;;;;6.72;6.00;;;20.80;91.70;;;;;;4889835;29;20439;-61
2023/04/29 10:38:23;;;;;;;2.65;2.42;;;20.40;92.30;;;;;;4887621;29;20206;-62
2023/04/29 10:40:52;;;;;;;3.00;2.30;;;20.50;92.80;;;;;;4889814;29;20225;-60
2023/04/29 10:43:27;;;;;;;2.30;2.10;;;20.30;93.10;;;;;;4889102;29;20732;-62
2023/04/29 10:46:18;;;;;;;2.10;2.00;;;20.40;92.90;;;;;;4888668;29;20682;-61
2023/04/29 10:48:45;;;;;;;3.10;2.90;;;21.30;91.90;;;;;;4888795;29;20715;-62
2023/04/29 10:51:11;;;;;;;3.00;2.70;;;21.10;91.50;;;;;;4889465;29;20213;-61
2023/04/29 10:53:57;;;;;;;3.00;2.80;;;21.00;91.70;;;;;;4890300;29;21041;-62
2023/04/29 10:56:38;;;;;;;2.95;2.75;;;21.30;92.00;;;;;;4886362;29;20301;-63
2023/04/29 10:59:04;;;;;;;3.20;2.90;;;20.50;92.40;;;;;;4890634;29;20210;-63
2023/04/29 11:01:52;;;;;;;2.97;2.35;;;20.00;93.70;;;;;;4890390;29;20551;-62
2023/04/29 11:04:20;;;;;;;2.92;2.70;;;20.70;93.10;;;;;;4891049;29;20194;-62
2023/04/29 11:06:54;;;;;;;2.70;2.50;;;21.10;91.90;;;;;;4886568;29;20188;-62
2023/04/29 11:09:23;;;;;;;2.67;2.47;;;20.10;92.40;;;;;;4888198;29;20278;-63
2023/04/29 11:11:52;;;;;;;5.47;2.83;;;20.60;92.40;;;;;;4885433;29;20195;-62
2023/04/29 11:14:41;;;;;;;3.00;2.70;;;21.70;91.10;;;;;;4889432;29;20454;-60
2023/04/29 11:17:14;;;;;;;3.80;3.00;;;21.90;90.90;;;;;;4889283;29;20465;-62
2023/04/29 11:19:44;;;;;;;3.10;2.80;;;21.40;89.80;;;;;;4891041;29;20491;-62
2023/04/29 11:22:20;;;;;;;2.80;2.60;;;20.60;90.80;;;;;;4889536;29;20183;-62
2023/04/29 11:25:02;;;;;;;3.03;2.78;;;19.90;91.10;;;;;;4885580;29;20199;-61
2023/04/29 11:27:33;;;;;;;3.50;3.20;;;19.70;91.30;;;;;;4885821;29;20643;-62
2023/04/29 11:30:02;;;;;;;2.22;2.10;;;19.50;91.80;;;;;;4883333;29;20246;-62
2023/04/29 11:32:44;;;;;;;2.35;2.15;;;19.80;91.70;;;;;;4888163;29;20238;-62
2023/04/29 11:35:13;;;;;;;2.55;2.35;;;19.70;90.80;;;;;;4890664;29;20205;-62
2023/04/29 11:37:40;;;;;;;2.35;2.10;;;19.60;90.70;;;;;;4889414;29;20218;-61
2023/04/29 11:40:06;;;;;;;3.47;3.20;;;20.00;90.80;;;;;;4886263;29;20442;-62
2023/04/29 11:42:40;;;;;;;2.40;2.20;;;20.00;90.80;;;;;;4884198;29;20596;-62
2023/04/29 11:45:06;;;;;;;7.85;7.05;;;20.10;89.80;;;;;;4887345;29;20266;-62
2023/04/29 11:47:32;;;;;;;3.35;3.00;;;20.30;89.90;;;;;;4887948;29;20199;-62
2023/04/29 11:50:08;;;;;;;4.30;3.10;;;20.90;90.60;;;;;;4889736;29;20301;-62
2023/04/29 11:52:39;;;;;;;3.25;2.97;;;20.80;89.10;;;;;;4887082;29;20285;-62
2023/04/29 11:55:08;;;;;;;2.43;2.33;;;21.30;89.20;;;;;;4888079;29;20219;-62
2023/04/29 11:57:34;;;;;;;3.17;2.70;;;21.40;88.80;;;;;;4885578;29;20658;-62
2023/04/29 12:00:00;;;;;;;3.72;3.42;;;21.50;88.40;;;;;;4885877;29;20482;-62
2023/04/29 12:02:32;;;;;;;3.33;3.07;;;21.60;90.30;;;;;;4887845;29;20654;-63
2023/04/29 12:05:07;;;;;;;3.30;3.10;;;21.80;89.30;;;;;;4883620;29;20223;-62
2023/04/29 12:07:34;;;;;;;3.70;3.40;;;21.60;88.50;;;;;;4888241;29;20450;-62
2023/04/29 12:10:00;;;;;;;3.53;3.22;;;21.10;90.40;;;;;;4885061;29;20486;-63
2023/04/29 12:12:30;;;;;;;3.60;3.30;;;21.10;90.50;;;;;;4888255;29;20281;-62
2023/04/29 12:14:56;;;;;;;4.07;3.78;;;21.10;90.30;;;;;;4887383;29;20552;-62
2023/04/29 12:17:23;;;;;;;3.80;3.50;;;21.00;90.80;;;;;;4887692;29;20210;-61
2023/04/29 12:19:50;;;;;;;4.10;3.53;;;21.10;90.70;;;;;;4886340;29;20653;-62
2023/04/29 12:22:15;;;;;;;3.80;3.50;;;21.10;91.10;;;;;;4887111;29;20195;-62
2023/04/29 12:24:41;;;;;;;3.10;2.90;;;21.20;91.00;;;;;;4885699;29;20199;-63
2023/04/29 12:27:10;;;;;;;5.50;5.00;;;21.00;90.80;;;;;;4886620;29;20195;-62
2023/04/29 12:29:41;;;;;;;5.40;4.95;;;20.80;91.60;;;;;;4886554;29;20730;-62
2023/04/29 12:32:11;;;;;;;4.75;4.25;;;20.30;90.50;;;;;;4886547;29;20725;-62
2023/04/29 12:34:38;;;;;;;5.03;4.63;;;20.00;92.70;;;;;;4890402;29;20199;-62
2023/04/29 12:37:04;;;;;;;5.10;4.43;;;20.20;92.60;;;;;;4889016;29;20438;-64
2023/04/29 12:39:30;;;;;;;4.93;4.37;;;20.40;92.50;;;;;;4885874;29;20203;-64
2023/04/29 12:42:00;;;;;;;5.30;4.90;;;20.30;91.90;;;;;;4887434;29;20193;-62
2023/04/29 12:44:33;;;;;;;4.97;4.47;;;20.60;92.00;;;;;;4888149;29;20502;-62
2023/04/29 12:47:09;;;;;;;5.22;4.60;;;20.90;91.90;;;;;;4888313;29;20291;-64
2023/04/29 12:49:36;;;;;;;5.90;5.22;;;20.10;91.20;;;;;;4888473;29;20214;-62
2023/04/29 12:52:02;;;;;;;5.47;5.00;;;20.80;91.50;;;;;;4888750;29;20197;-62